Latest Weather Observations for Horsham AWS

IDV60801

Issued at 2:35 pm EST Tuesday 29 July 2014 (issued every 30 minutes, with the page automatically refreshed every 10 minutes)

About weather observations | Map of weather stations | Latest weather observations for VIC | Other Formats
Station Details ID: 079100 Name: HORSHAM AERODROME Lat: -36.67 Lon: 142.17 Height: 133.8 m
Data from the previous 72 hours. | See also: Recent months at Horsham AWS
Date/Time
EST
Temp
°C
App
Temp
°C
Dew
Point
Rel
Hum
%
Delta-T
°C
Wind Press
QNH
hPa
Press
MSL
hPa
Rain
since 9 am
mm
Dir
 
Spd
km/h
Gust
km/h
Spd
kts
Gust
kts
29/02:30pm 15.2 6.8 11.0 76 2.3 NW 46 61 25 33 1010.6 - 0.0
29/02:00pm 15.4 6.6 10.8 74 2.5 NW 48 59 26 32 1010.5 - 0.0
29/01:35pm 15.1 7.4 10.3 73 2.5 NW 41 63 22 34 1010.4 - 0.0
29/01:30pm 14.7 7.2 10.7 77 2.1 WNW 41 56 22 30 1010.7 - 0.0
29/01:22pm 14.7 6.3 10.9 78 2.0 NW 46 65 25 35 1010.7 - 0.0
29/01:00pm 15.3 6.8 10.5 73 2.5 NW 46 63 25 34 1010.9 - 0.0
29/12:30pm 14.6 7.0 10.4 76 2.2 NW 41 52 22 28 1011.4 - 0.0
29/12:18pm 15.6 8.1 10.8 73 2.6 NW 41 59 22 32 1011.4 - 0.0
29/12:00pm 14.6 7.0 10.4 76 2.2 NW 41 57 22 31 1012.0 1012.2 0.0
29/11:30am 13.4 6.4 10.0 80 1.8 NW 37 48 20 26 1012.5 - 0.0
29/11:00am 13.1 6.0 9.7 80 1.8 NW 37 46 20 25 1012.5 - 0.0
29/10:30am 12.7 6.3 9.3 80 1.7 NNW 33 43 18 23 1012.1 - 0.0
29/10:00am 11.6 5.2 8.5 81 1.5 NNW 32 39 17 21 1012.2 - 0.0
29/09:30am 10.6 4.0 7.7 82 1.4 NNW 32 43 17 23 1012.0 - 0.0
29/09:00am 10.3 3.6 7.4 82 1.4 NNW 32 43 17 23 1012.1 1012.3 0.4
29/08:30am 9.5 3.1 6.9 84 1.2 NNW 30 41 16 22 1012.5 - 0.4
29/08:00am 8.7 3.0 6.5 86 1.0 NNW 26 32 14 17 1012.3 - 0.4
29/07:30am 8.6 3.2 6.4 86 1.0 NNW 24 32 13 17 1012.2 - 0.4
29/07:00am 8.8 2.7 6.4 85 1.1 NNW 28 33 15 18 1012.1 - 0.4
29/06:30am 8.8 2.3 6.6 86 1.0 NNW 30 35 16 19 1012.0 - 0.4
29/06:00am 8.1 2.7 6.2 88 0.9 NNW 24 32 13 17 1011.7 1011.9 0.4
29/05:30am 8.1 2.3 6.2 88 0.9 NNW 26 33 14 18 1011.6 - 0.4
29/05:00am 8.3 2.2 6.4 88 0.9 NNW 28 33 15 18 1011.6 - 0.4
29/04:30am 8.0 2.3 6.5 90 0.7 NNW 26 30 14 16 1011.6 - 0.4
29/04:00am 7.7 2.3 6.5 92 0.6 NNW 24 30 13 16 1011.7 - 0.4
29/03:30am 7.9 2.6 6.8 93 0.5 NNW 24 28 13 15 1012.0 - 0.4
29/03:00am 7.7 2.4 6.6 93 0.5 NNW 24 30 13 16 1011.9 1012.1 0.4
29/02:30am 7.7 2.4 6.6 93 0.5 NNW 24 32 13 17 1012.2 - 0.4
29/02:00am 7.6 3.0 6.7 94 0.4 NNW 20 26 11 14 1012.5 - 0.4
29/01:30am 7.7 3.4 6.8 94 0.4 NNW 19 22 10 12 1012.7 - 0.4
29/01:00am 7.8 3.3 6.9 94 0.4 NNW 20 24 11 13 1013.3 - 0.4
29/12:30am 7.8 3.5 7.1 95 0.3 NNW 19 22 10 12 1013.4 - 0.4
29/12:00am 7.7 3.4 7.0 95 0.3 NNW 19 20 10 11 1013.8 1014.1 0.4
 
Date/Time
EST
Temp
°C
App
Temp
°C
Dew
Point
Rel
Hum
%
Delta-T
°C
Wind Press
QNH
hPa
Press
MSL
hPa
Rain
since 9 am
mm
Dir
 
Spd
km/h
Gust
km/h
Spd
kts
Gust
kts
28/11:30pm 7.8 3.5 7.1 95 0.3 NNW 19 20 10 11 1014.0 - 0.4
28/11:00pm 8.2 3.8 7.3 94 0.4 NNW 20 24 11 13 1014.4 - 0.4
28/10:30pm 8.4 4.2 7.5 94 0.4 NNW 19 22 10 12 1014.7 - 0.4
28/10:00pm 8.7 4.4 7.8 94 0.4 NNW 20 26 11 14 1014.7 - 0.4
28/09:30pm 7.3 3.6 6.4 94 0.4 N 15 17 8 9 1014.9 - 0.4
28/09:00pm 7.1 3.0 6.0 93 0.5 N 17 19 9 10 1014.6 1014.8 0.4
28/08:30pm 7.1 3.0 6.0 93 0.5 N 17 19 9 10 1014.6 - 0.4
28/08:00pm 7.3 3.2 6.1 92 0.5 NNW 17 19 9 10 1014.4 - 0.4
28/07:30pm 6.7 2.8 5.3 91 0.6 N 15 15 8 8 1014.0 - 0.4
28/07:00pm 7.3 3.9 5.8 90 0.7 NNW 13 15 7 8 1014.0 - 0.4
28/06:30pm 8.5 4.5 6.5 87 0.9 NNW 17 17 9 9 1013.6 - 0.4
28/06:00pm 10.0 6.1 7.3 83 1.3 NNW 17 19 9 10 1013.8 1014.1 0.4
28/05:30pm 13.1 8.9 8.2 72 2.4 NW 20 24 11 13 1013.5 - 0.4
28/05:00pm 14.6 10.4 8.3 66 3.2 NW 20 24 11 13 1013.4 - 0.4
28/04:30pm 15.6 10.9 7.9 60 3.9 NW 22 30 12 16 1013.6 - 0.4
28/04:00pm 16.1 11.0 7.6 57 4.3 WNW 24 32 13 17 1013.7 - 0.4
28/03:30pm 16.4 10.6 7.9 57 4.3 WNW 28 37 15 20 1013.7 - 0.4
28/03:00pm 16.5 10.7 8.0 57 4.3 WNW 28 33 15 18 1013.8 1014.1 0.4
28/02:30pm 16.8 11.9 8.5 58 4.3 WNW 24 32 13 17 1013.9 - 0.4
28/02:00pm 16.5 11.0 7.7 56 4.4 WNW 26 39 14 21 1013.8 - 0.4
28/01:30pm 17.0 12.6 10.4 65 3.5 WNW 24 32 13 17 1014.4 - 0.4
28/01:00pm 16.0 12.0 10.5 70 2.9 WNW 22 30 12 16 1015.0 - 0.4
28/12:30pm 15.5 11.1 10.3 71 2.8 NW 24 32 13 17 1015.4 - 0.4
28/12:00pm 14.5 10.3 9.7 73 2.5 NW 22 28 12 15 1015.9 1016.1 0.4
28/11:30am 13.5 9.7 9.2 75 2.2 NNW 19 22 10 12 1016.3 - 0.2
28/11:00am 12.2 8.5 8.1 76 2.0 NNW 17 19 9 10 1016.9 - 0.2
28/10:30am 10.4 6.9 7.3 81 1.5 NNW 15 19 8 10 1017.0 - 0.2
28/10:12am 10.0 6.4 6.9 81 1.5 NNW 15 19 8 10 1017.1 - 0.2
28/10:00am 9.5 5.5 6.6 82 1.4 NNW 17 20 9 11 1017.1 - 0.2
28/09:35am 8.9 5.1 6.0 82 1.3 NNW 15 19 8 10 1017.0 - 0.2
28/09:30am 9.0 5.3 6.4 84 1.2 NNW 15 19 8 10 1017.1 - 0.0
28/09:00am 6.6 3.0 4.9 89 0.7 N 13 17 7 9 1016.8 1017.0 0.0
28/08:30am 5.5 1.0 4.3 92 0.5 N 17 20 9 11 1016.7 - 0.0
28/08:00am 3.6 -0.8 2.9 95 0.3 N 15 17 8 9 1016.5 - 0.0
28/07:30am 2.7 -1.5 1.8 94 0.4 N 13 15 7 8 1016.5 - 0.0
28/07:00am 2.8 -0.6 2.1 95 0.3 N 9 11 5 6 1016.6 - 0.0
28/06:30am 2.6 -0.4 1.7 94 0.4 N 7 11 4 6 1016.6 - 0.0
28/06:00am 2.6 -1.2 1.7 94 0.4 N 11 11 6 6 1016.4 1016.6 0.0
28/05:30am 3.3 -1.2 2.4 94 0.4 N 15 17 8 9 1016.3 - 0.0
28/05:00am 3.2 -0.1 2.5 95 0.3 N 9 11 5 6 1016.6 - 0.0
28/04:30am 3.3 -0.7 2.6 95 0.3 N 13 15 7 8 1016.6 - 0.0
28/04:00am 3.4 -0.7 2.5 94 0.4 N 13 15 7 8 1016.7 - 0.0
28/03:30am 3.7 -0.7 2.8 94 0.4 N 15 15 8 8 1016.9 - 0.0
28/03:00am 4.6 0.8 3.7 94 0.4 N 13 17 7 9 1017.2 1017.4 0.0
28/02:30am 4.3 0.3 3.1 92 0.5 N 13 17 7 9 1017.3 - 0.0
28/02:00am 5.0 0.4 3.5 90 0.6 N 17 20 9 11 1017.5 - 0.0
28/01:30am 5.7 1.2 4.2 90 0.6 N 17 20 9 11 1017.7 - 0.0
28/01:00am 5.8 0.9 4.3 90 0.6 N 19 20 10 11 1018.1 - 0.0
28/12:30am 5.2 0.7 4.0 92 0.5 N 17 19 9 10 1018.6 - 0.0
28/12:00am 5.0 0.8 3.8 92 0.5 N 15 17 8 9 1018.8 1019.0 0.0
 
Date/Time
EST
Temp
°C
App
Temp
°C
Dew
Point
Rel
Hum
%
Delta-T
°C
Wind Press
QNH
hPa
Press
MSL
hPa
Rain
since 9 am
mm
Dir
 
Spd
km/h
Gust
km/h
Spd
kts
Gust
kts
27/11:30pm 5.9 1.4 4.4 90 0.6 N 17 20 9 11 1018.9 - 0.0
27/11:00pm 6.3 1.5 4.8 90 0.7 N 19 20 10 11 1019.1 - 0.0
27/10:30pm 6.6 1.8 4.9 89 0.7 N 19 22 10 12 1019.3 - 0.0
27/10:00pm 6.7 2.0 5.2 90 0.7 N 19 20 10 11 1019.5 - 0.0
27/09:30pm 7.1 2.5 5.4 89 0.8 N 19 24 10 13 1019.8 - 0.0
27/09:00pm 7.3 2.7 5.6 89 0.8 N 19 22 10 12 1019.9 1020.2 0.0
27/08:30pm 7.6 3.1 6.1 90 0.7 N 19 22 10 12 1020.1 - 0.0
27/08:00pm 7.9 3.8 6.2 89 0.8 N 17 19 9 10 1020.2 - 0.0
27/07:30pm 8.2 4.2 6.5 89 0.8 N 17 19 9 10 1020.4 - 0.0
27/07:00pm 9.1 5.3 7.4 89 0.8 N 17 19 9 10 1020.5 - 0.0
27/06:30pm 9.4 6.0 7.5 88 0.9 N 15 17 8 9 1020.4 - 0.0
27/06:00pm 10.0 6.6 7.6 85 1.2 N 15 17 8 9 1020.1 1020.4 0.0
27/05:30pm 11.6 7.6 8.3 80 1.6 N 19 20 10 11 1019.8 - 0.0
27/05:00pm 12.8 9.2 8.5 75 2.2 N 17 20 9 11 1019.7 - 0.0
27/04:30pm 14.0 10.0 8.2 68 2.9 NNW 19 22 10 12 1019.9 - 0.0
27/04:00pm 14.5 9.9 8.0 65 3.3 N 22 30 12 16 1019.7 - 0.0
27/03:30pm 15.1 10.5 8.3 64 3.4 NNW 22 32 12 17 1020.4 - 0.0
27/03:00pm 15.2 10.2 8.2 63 3.5 NNW 24 32 13 17 1020.3 1020.6 0.0
27/02:30pm 14.8 7.6 7.8 63 3.5 NNW 35 44 19 24 1020.6 - 0.0
27/02:00pm 14.8 9.9 8.5 66 3.2 NNW 24 32 13 17 1020.5 - 0.0
27/01:30pm 14.6 8.2 8.5 67 3.1 NNW 32 39 17 21 1021.1 - 0.0
27/01:00pm 14.3 9.2 9.3 72 2.6 N 26 33 14 18 1021.2 - 0.0
27/12:30pm 13.7 8.3 9.4 75 2.2 N 28 37 15 20 1022.1 - 0.0
27/12:00pm 13.1 7.6 9.0 76 2.1 N 28 35 15 19 1023.1 1023.3 0.0
27/11:30am 12.9 7.7 9.0 77 2.0 N 26 35 14 19 1023.8 - 0.0
27/11:00am 11.6 6.4 9.0 84 1.3 N 26 32 14 17 1024.1 - 0.0
27/10:30am 10.5 5.5 9.6 94 0.5 N 26 32 14 17 1024.3 - 0.0
27/10:00am 9.3 5.9 9.2 99 0.0 N 17 20 9 11 1024.6 - 0.0
27/09:39am 7.8 4.8 7.7 99 0.0 N 13 15 7 8 1025.0 - 0.0
27/09:30am 6.8 3.9 6.7 99 0.0 N 11 15 6 8 1025.1 - 0.0
27/09:00am 4.4 1.1 4.3 99 0.0 NNE 11 13 6 7 1025.3 1025.5 0.0
27/08:30am 2.7 0.0 2.6 99 0.0 NNE 6 7 3 4 1025.5 - 0.0
27/08:00am 1.7 0.0 1.6 99 0.0 CALM 0 0 0 0 1025.6 - 0.0
27/07:30am 1.4 -1.5 1.3 99 0.0 NE 6 7 3 4 1025.2 - 0.0
27/07:00am 1.4 -1.7 1.3 99 0.0 NE 7 9 4 5 1025.0 - 0.0
27/06:30am 1.5 -2.0 1.4 99 0.0 NE 9 11 5 6 1024.8 - 0.0
27/06:00am 1.7 -1.7 1.6 99 0.0 NE 9 11 5 6 1025.0 1025.2 0.0
27/05:30am 2.0 -0.8 1.9 99 0.0 NE 6 7 3 4 1024.9 - 0.0
27/05:00am 1.7 -1.8 1.4 98 0.1 NE 9 11 5 6 1024.8 - 0.0
27/04:30am 1.7 -1.4 1.4 98 0.1 NNE 7 9 4 5 1024.8 - 0.0
27/04:00am 1.7 -2.2 1.4 98 0.1 NE 11 13 6 7 1025.0 - 0.0
27/03:30am 1.9 -1.2 1.6 98 0.1 N 7 9 4 5 1025.3 - 0.0
27/03:00am 2.4 -1.0 2.1 98 0.1 NNE 9 11 5 6 1025.3 1025.5 0.0
27/02:45am 2.6 -0.7 2.2 97 0.2 N 9 15 5 8 1025.3 - 0.0
27/02:30am 3.2 0.0 2.8 97 0.2 N 9 11 5 6 1025.3 - 0.0
27/02:00am 3.7 0.5 3.3 97 0.2 N 9 11 5 6 1025.5 - 0.0
27/01:30am 4.7 1.7 4.3 97 0.2 N 9 11 5 6 1025.6 - 0.0
27/01:00am 4.7 1.7 4.1 96 0.3 NNW 9 13 5 7 1025.7 - 0.0
27/12:30am 5.0 2.1 4.4 96 0.3 NW 9 9 5 5 1025.9 - 0.0
27/12:00am 4.9 1.5 4.2 95 0.3 NNW 11 13 6 7 1026.0 1026.3 0.0
 
Date/Time
EST
Temp
°C
App
Temp
°C
Dew
Point
Rel
Hum
%
Delta-T
°C
Wind Press
QNH
hPa
Press
MSL
hPa
Rain
since 9 am
mm
Dir
 
Spd
km/h
Gust
km/h
Spd
kts
Gust
kts
26/11:30pm 5.6 2.3 4.7 94 0.4 NW 11 13 6 7 1026.3 - 0.0
26/11:00pm 6.3 3.1 5.3 93 0.4 NW 11 13 6 7 1026.5 - 0.0
26/10:30pm 7.2 4.6 6.1 93 0.5 NW 9 11 5 6 1026.6 - 0.0
26/10:00pm 7.3 5.1 6.2 93 0.5 NNW 7 11 4 6 1026.5 - 0.0
26/09:30pm 7.8 5.3 6.6 92 0.6 NW 9 13 5 7 1026.6 - 0.0
26/09:00pm 7.8 5.8 6.4 91 0.6 WNW 6 7 3 4 1026.3 1026.6 0.0
26/08:30pm 8.2 6.3 6.7 90 0.7 WNW 6 7 3 4 1026.1 - 0.0
26/08:00pm 7.9 6.0 6.7 92 0.6 WNW 6 7 3 4 1026.0 - 0.0
26/07:30pm 7.3 4.6 5.8 90 0.7 NW 9 13 5 7 1026.0 - 0.0
26/07:00pm 9.4 7.6 7.3 87 1.0 W 6 7 3 4 1025.8 - 0.0
26/06:30pm 9.7 7.5 6.4 80 1.5 W 7 9 4 5 1025.5 - 0.0
26/06:00pm 11.6 9.3 7.5 76 2.0 W 9 11 5 6 1025.3 1025.5 0.0
26/05:30pm 12.5 9.9 7.6 72 2.4 W 11 13 6 7 1025.2 - 0.0
26/05:00pm 14.2 11.4 8.6 69 2.8 W 13 15 7 8 1025.0 - 0.0
26/04:30pm 15.0 11.3 8.0 63 3.5 W 17 22 9 12 1024.8 - 0.0
26/04:00pm 15.4 10.6 7.2 58 4.1 WSW 22 28 12 15 1024.7 - 0.0
26/03:30pm 15.6 12.0 8.4 62 3.7 SW 17 22 9 12 1024.6 - 0.0
26/03:00pm 16.2 13.2 9.4 64 3.5 WSW 15 22 8 12 1024.4 1024.6 0.0

Other Formats:

Comma delimited format used in spreadsheet applications
http://www.bom.gov.au/fwo/IDV60801/IDV60801.95839.axf

JavaScript Object Notation format (JSON) in row-major order
http://www.bom.gov.au/fwo/IDV60801/IDV60801.95839.json